createdAt,value
2023-09-06T00:02:26.229Z,12.86
2023-09-06T00:04:53.308Z,12.79
2023-09-06T00:07:24.353Z,12.75
2023-09-06T00:09:52.336Z,12.72
2023-09-06T00:12:20.317Z,12.71
2023-09-06T00:14:49.039Z,12.72
2023-09-06T00:17:17.583Z,12.70
2023-09-06T00:19:46.253Z,12.70
2023-09-06T00:22:14.536Z,12.69
2023-09-06T00:24:42.609Z,12.70
2023-09-06T00:27:09.752Z,12.71
2023-09-06T00:29:37.611Z,12.75
2023-09-06T00:32:06.091Z,12.77
2023-09-06T00:34:35.232Z,12.79
2023-09-06T00:37:11.645Z,12.83
2023-09-06T00:39:40.821Z,12.84
2023-09-06T00:42:09.822Z,12.86
2023-09-06T00:44:37.288Z,12.87
2023-09-06T00:47:04.874Z,12.88
2023-09-06T00:49:34.123Z,12.88
2023-09-06T00:52:01.822Z,12.89
2023-09-06T00:54:29.107Z,12.90
2023-09-06T00:56:57.970Z,12.89
2023-09-06T00:59:31.002Z,12.89
2023-09-06T01:02:00.679Z,12.89
2023-09-06T01:04:28.693Z,12.88
2023-09-06T01:06:59.591Z,12.88
2023-09-06T01:09:30.777Z,12.89
2023-09-06T01:11:58.784Z,12.88
2023-09-06T01:14:27.157Z,12.87
2023-09-06T01:16:58.855Z,12.86
2023-09-06T01:19:30.573Z,12.85
2023-09-06T01:22:36.357Z,12.84
2023-09-06T01:25:05.135Z,12.84
2023-09-06T01:27:40.444Z,12.84
2023-09-06T01:30:16.352Z,12.83
2023-09-06T01:35:31.768Z,12.82
2023-09-06T01:38:03.020Z,12.78
2023-09-06T01:43:14.404Z,12.74
2023-09-06T01:45:57.360Z,12.73
2023-09-06T01:48:26.622Z,12.70
2023-09-06T01:50:55.495Z,12.69
2023-09-06T01:53:27.511Z,12.65
2023-09-06T01:55:55.431Z,12.59
2023-09-06T01:58:23.423Z,12.56
2023-09-06T02:00:51.316Z,12.49
2023-09-06T02:03:20.282Z,12.46
2023-09-06T02:05:48.115Z,12.41
2023-09-06T02:08:15.960Z,12.33
2023-09-06T02:10:49.433Z,12.28
2023-09-06T02:13:16.866Z,12.21
2023-09-06T02:15:47.788Z,12.14
2023-09-06T02:18:21.884Z,12.08
2023-09-06T02:20:52.819Z,12.04
2023-09-06T02:23:30.104Z,12.01
2023-09-06T02:26:10.956Z,11.95
2023-09-06T02:28:41.424Z,11.90
2023-09-06T02:31:13.116Z,11.87
2023-09-06T02:33:48.994Z,11.81
2023-09-06T02:36:18.801Z,11.76
2023-09-06T02:38:48.397Z,11.74
2023-09-06T02:41:16.589Z,11.70
2023-09-06T02:43:44.100Z,11.68
2023-09-06T02:46:13.861Z,11.60
2023-09-06T02:48:43.262Z,11.57
2023-09-06T02:51:11.846Z,11.53
2023-09-06T02:53:46.172Z,11.50
2023-09-06T02:56:17.059Z,11.48
2023-09-06T02:58:45.106Z,11.45
2023-09-06T03:01:21.863Z,11.43
2023-09-06T03:03:52.988Z,11.41
2023-09-06T03:06:34.388Z,11.32
2023-09-06T03:09:10.485Z,11.29
2023-09-06T03:11:40.101Z,11.27
2023-09-06T03:14:07.628Z,11.24
2023-09-06T03:16:40.423Z,11.20
2023-09-06T03:19:12.832Z,11.16
2023-09-06T03:21:42.085Z,11.14
2023-09-06T03:24:14.059Z,11.13
2023-09-06T03:26:45.710Z,11.12
2023-09-06T03:29:17.522Z,11.09
2023-09-06T03:31:48.552Z,11.09
2023-09-06T03:34:17.553Z,11.08
2023-09-06T03:36:48.361Z,11.06
2023-09-06T03:39:17.087Z,11.02
2023-09-06T03:41:45.085Z,10.93
2023-09-06T03:44:19.724Z,10.86
2023-09-06T03:46:51.084Z,10.82
2023-09-06T03:49:20.507Z,10.78
2023-09-06T03:51:47.937Z,10.76
2023-09-06T03:54:19.216Z,10.74
2023-09-06T03:56:49.044Z,10.72
2023-09-06T03:59:16.878Z,10.70
2023-09-06T04:01:47.876Z,10.65
2023-09-06T04:04:16.059Z,10.65
2023-09-06T04:07:40.161Z,10.58
2023-09-06T04:10:40.613Z,10.50
2023-09-06T04:13:12.912Z,10.49
2023-09-06T04:15:42.224Z,10.45
2023-09-06T04:18:14.242Z,10.49
2023-09-06T04:20:47.996Z,10.49
2023-09-06T04:23:19.377Z,10.49
2023-09-06T04:25:52.529Z,10.49
2023-09-06T04:28:30.681Z,10.49
2023-09-06T04:31:01.895Z,10.51
2023-09-06T04:33:35.207Z,10.54
2023-09-06T04:36:12.746Z,10.56
2023-09-06T04:38:43.951Z,10.59
2023-09-06T04:41:13.029Z,10.62
2023-09-06T04:43:50.736Z,10.69
2023-09-06T04:46:18.693Z,10.76
2023-09-06T04:48:49.583Z,10.82
2023-09-06T04:51:18.794Z,10.90
2023-09-06T04:53:47.520Z,11.03
2023-09-06T04:56:20.100Z,11.15
2023-09-06T04:58:51.243Z,11.28
2023-09-06T05:01:19.874Z,11.37
2023-09-06T05:03:48.713Z,11.50
2023-09-06T05:06:17.353Z,11.60
2023-09-06T05:08:46.196Z,11.71
2023-09-06T05:11:19.353Z,11.85
2023-09-06T05:13:51.074Z,11.99
2023-09-06T05:16:20.865Z,12.12
2023-09-06T05:18:50.417Z,12.23
2023-09-06T05:21:21.677Z,12.36
2023-09-06T05:23:54.010Z,12.47
2023-09-06T05:26:24.117Z,12.60
2023-09-06T05:28:52.341Z,12.72
2023-09-06T05:31:20.598Z,12.88
2023-09-06T05:33:50.329Z,13.01
2023-09-06T05:36:21.837Z,13.18
2023-09-06T05:38:49.617Z,13.35
2023-09-06T05:41:21.724Z,13.51
2023-09-06T05:43:50.493Z,13.63
2023-09-06T05:46:32.406Z,13.78
2023-09-06T05:49:06.735Z,13.94
2023-09-06T05:51:38.259Z,14.09
2023-09-06T05:54:06.379Z,14.22
2023-09-06T05:56:37.230Z,14.35
2023-09-06T05:59:07.435Z,14.49
2023-09-06T06:01:35.933Z,14.65
2023-09-06T06:04:04.421Z,14.80
2023-09-06T06:06:32.296Z,14.97
2023-09-06T06:09:02.200Z,15.10
2023-09-06T06:11:29.516Z,15.25
2023-09-06T06:14:09.734Z,15.40
2023-09-06T06:16:48.073Z,15.55
2023-09-06T06:19:15.911Z,15.68
2023-09-06T06:21:45.437Z,15.80
2023-09-06T06:24:15.420Z,15.90
2023-09-06T06:26:43.289Z,16.02
2023-09-06T06:29:11.903Z,16.06
2023-09-06T06:31:39.973Z,16.18
2023-09-06T06:34:08.000Z,16.32
2023-09-06T06:36:35.613Z,16.35
2023-09-06T06:39:03.036Z,16.48
2023-09-06T06:41:30.568Z,16.57
2023-09-06T06:43:57.961Z,16.69
2023-09-06T06:46:35.067Z,16.76
2023-09-06T06:49:06.047Z,16.86
2023-09-06T06:51:43.187Z,17.02
2023-09-06T06:54:16.096Z,17.09
2023-09-06T06:56:43.608Z,17.20
2023-09-06T06:59:11.266Z,17.25
2023-09-06T07:01:40.259Z,17.35
2023-09-06T07:04:07.627Z,17.49
2023-09-06T07:06:37.204Z,17.64
2023-09-06T07:09:05.273Z,17.79
2023-09-06T07:11:33.559Z,17.89
2023-09-06T07:14:02.002Z,18.06
2023-09-06T07:16:35.582Z,18.21
2023-09-06T07:19:03.911Z,18.34
2023-09-06T07:21:32.562Z,18.52
2023-09-06T07:23:59.997Z,18.67
2023-09-06T07:26:26.772Z,18.77
2023-09-06T07:28:55.013Z,18.92
2023-09-06T07:31:22.867Z,19.05
2023-09-06T07:33:51.402Z,19.18
2023-09-06T07:36:21.025Z,19.31
2023-09-06T07:38:50.704Z,19.48
2023-09-06T07:41:21.407Z,19.61
2023-09-06T07:43:49.141Z,19.69
2023-09-06T07:46:17.289Z,19.83
2023-09-06T07:48:45.406Z,20.01
2023-09-06T07:51:13.591Z,19.91
2023-09-06T07:53:41.076Z,20.12
2023-09-06T07:56:09.760Z,20.22
2023-09-06T07:59:23.638Z,20.47
2023-09-06T08:01:55.577Z,20.67
2023-09-06T08:04:23.409Z,20.78
2023-09-06T08:06:51.352Z,20.99
2023-09-06T08:09:18.711Z,21.09
2023-09-06T08:11:47.259Z,21.21
2023-09-06T08:14:14.482Z,21.34
2023-09-06T08:16:42.134Z,21.53
2023-09-06T08:19:09.638Z,21.66
2023-09-06T08:21:36.868Z,21.83
2023-09-06T08:24:05.171Z,22.05
2023-09-06T08:26:32.956Z,22.27
2023-09-06T08:29:00.935Z,22.48
2023-09-06T08:31:28.841Z,22.70
2023-09-06T08:33:57.748Z,22.90
2023-09-06T08:36:29.150Z,23.03
2023-09-06T08:38:57.082Z,23.20
2023-09-06T08:41:27.953Z,23.33
2023-09-06T08:43:56.717Z,23.53
2023-09-06T08:46:34.657Z,23.72
2023-09-06T08:49:05.053Z,23.80
2023-09-06T08:51:37.186Z,23.91
2023-09-06T08:54:07.903Z,24.05
2023-09-06T08:56:36.768Z,24.22
2023-09-06T08:59:05.084Z,24.29
2023-09-06T09:01:33.286Z,24.39
2023-09-06T09:04:01.306Z,24.38
2023-09-06T09:06:30.991Z,24.40
2023-09-06T09:09:19.048Z,24.60
2023-09-06T09:11:52.281Z,24.70
2023-09-06T09:14:22.722Z,24.80
2023-09-06T09:17:00.686Z,24.96
2023-09-06T09:19:29.626Z,25.08
2023-09-06T09:21:58.067Z,25.23
2023-09-06T09:24:28.580Z,25.38
2023-09-06T09:26:58.159Z,25.45
2023-09-06T09:29:25.916Z,25.59
2023-09-06T09:31:55.242Z,25.72
2023-09-06T09:34:22.744Z,25.74
2023-09-06T09:36:52.121Z,25.89
2023-09-06T09:39:21.673Z,25.93
2023-09-06T09:41:59.054Z,26.00
2023-09-06T09:44:27.689Z,26.05
2023-09-06T09:47:06.675Z,26.00
2023-09-06T09:49:45.505Z,25.99
2023-09-06T09:52:14.293Z,26.10
2023-09-06T09:54:44.584Z,26.19
2023-09-06T09:57:13.622Z,26.27
2023-09-06T09:59:42.752Z,26.42
2023-09-06T10:02:27.965Z,26.32
2023-09-06T10:05:04.471Z,26.24
2023-09-06T10:07:48.262Z,26.26
2023-09-06T10:10:19.412Z,26.38
2023-09-06T10:12:53.511Z,26.46
2023-09-06T10:15:25.232Z,26.48
2023-09-06T10:17:57.795Z,26.44
2023-09-06T10:20:26.095Z,26.46
2023-09-06T10:22:58.769Z,26.42
2023-09-06T10:25:29.692Z,26.46
2023-09-06T10:27:59.208Z,26.52
2023-09-06T10:30:50.154Z,26.53
2023-09-06T10:33:38.085Z,26.64
2023-09-06T10:36:10.789Z,26.69
2023-09-06T10:38:55.706Z,26.78
2023-09-06T10:41:24.588Z,26.89
2023-09-06T10:44:02.864Z,26.95
2023-09-06T10:46:37.829Z,27.01
2023-09-06T10:49:14.822Z,27.04
2023-09-06T10:51:58.113Z,27.11
2023-09-06T10:54:44.104Z,27.07
2023-09-06T10:57:16.080Z,27.10
2023-09-06T10:59:45.976Z,27.21
2023-09-06T11:02:23.022Z,27.34
2023-09-06T11:05:05.621Z,27.20
2023-09-06T11:07:49.309Z,27.26
2023-09-06T11:10:21.901Z,27.33
2023-09-06T11:12:49.459Z,27.34
2023-09-06T11:15:17.076Z,27.35
2023-09-06T11:17:47.465Z,27.34
2023-09-06T11:20:18.729Z,27.45
2023-09-06T11:22:49.931Z,27.63
2023-09-06T11:25:22.499Z,27.68
2023-09-06T11:27:51.855Z,27.65
2023-09-06T11:30:28.204Z,27.77
2023-09-06T11:32:57.130Z,27.88
2023-09-06T11:35:34.318Z,27.93
2023-09-06T11:38:03.656Z,27.92
2023-09-06T11:40:33.719Z,28.02
2023-09-06T11:43:06.859Z,28.09
2023-09-06T11:45:36.080Z,28.16
2023-09-06T11:48:10.062Z,28.21
2023-09-06T11:50:40.102Z,28.29
2023-09-06T11:53:11.898Z,28.32
2023-09-06T11:55:44.169Z,28.39
2023-09-06T11:58:20.280Z,28.51
2023-09-06T12:00:49.669Z,28.64
2023-09-06T12:03:18.685Z,28.70
2023-09-06T12:05:50.230Z,28.63
2023-09-06T12:08:24.205Z,28.69
2023-09-06T12:11:07.049Z,28.70
2023-09-06T12:13:37.440Z,28.64
2023-09-06T12:16:09.574Z,28.59
2023-09-06T12:18:38.345Z,28.58
2023-09-06T12:21:07.489Z,28.68
2023-09-06T12:23:38.467Z,28.86
2023-09-06T12:26:08.308Z,28.94
2023-09-06T12:28:37.238Z,28.81
2023-09-06T12:33:38.605Z,28.78
2023-09-06T12:36:08.587Z,28.84
2023-09-06T12:38:36.925Z,28.83
2023-09-06T12:41:06.402Z,28.92
2023-09-06T12:43:37.748Z,28.91
2023-09-06T12:46:08.179Z,29.00
2023-09-06T12:48:39.985Z,29.04
2023-09-06T12:51:08.829Z,29.05
2023-09-06T12:53:36.391Z,29.14
2023-09-06T12:56:04.739Z,29.09
2023-09-06T12:58:33.886Z,29.08
2023-09-06T13:01:06.988Z,29.06
2023-09-06T13:03:35.173Z,29.00
2023-09-06T13:06:04.532Z,29.06
2023-09-06T13:08:37.815Z,29.09
2023-09-06T13:11:06.407Z,29.17
2023-09-06T13:13:34.954Z,29.09
2023-09-06T13:16:03.479Z,29.22
2023-09-06T13:18:31.108Z,29.21
2023-09-06T13:20:59.191Z,29.21
2023-09-06T13:23:26.666Z,29.26
2023-09-06T13:25:55.252Z,29.26
2023-09-06T13:28:22.619Z,29.30
2023-09-06T13:30:49.958Z,29.38
2023-09-06T13:33:17.562Z,29.46
2023-09-06T13:35:45.133Z,29.45
2023-09-06T13:38:15.504Z,29.50
2023-09-06T13:40:43.033Z,29.41
2023-09-06T13:43:11.867Z,29.40
2023-09-06T13:45:42.071Z,29.46
2023-09-06T13:48:12.079Z,29.41
2023-09-06T13:50:40.255Z,29.51
2023-09-06T13:53:08.019Z,29.50
2023-09-06T13:55:35.762Z,29.41
2023-09-06T13:58:06.531Z,29.33
2023-09-06T14:00:34.503Z,29.31
2023-09-06T14:03:02.656Z,29.25
2023-09-06T14:05:32.959Z,29.27
2023-09-06T14:08:01.956Z,29.22
2023-09-06T14:10:30.351Z,29.29
2023-09-06T14:12:57.704Z,29.31
2023-09-06T14:15:25.271Z,29.26
2023-09-06T14:17:53.422Z,29.34
2023-09-06T14:20:21.648Z,29.36
2023-09-06T14:22:49.539Z,29.40
2023-09-06T14:25:18.929Z,29.45
2023-09-06T14:27:45.749Z,29.41
2023-09-06T14:30:13.823Z,29.39
2023-09-06T14:32:42.421Z,29.31
2023-09-06T14:35:09.693Z,29.37
2023-09-06T14:37:37.111Z,29.31
2023-09-06T14:40:05.510Z,29.36
2023-09-06T14:42:34.242Z,29.19
2023-09-06T14:45:01.982Z,29.13
2023-09-06T14:47:30.303Z,29.08
2023-09-06T14:49:58.644Z,29.10
2023-09-06T14:52:26.126Z,29.08
2023-09-06T14:54:54.076Z,29.15
2023-09-06T14:57:22.681Z,29.16
2023-09-06T14:59:52.462Z,29.18
2023-09-06T15:02:20.671Z,29.02
2023-09-06T15:04:48.298Z,28.85
2023-09-06T15:07:15.673Z,28.89
2023-09-06T15:09:43.803Z,28.82
2023-09-06T15:12:11.411Z,28.78
2023-09-06T15:14:40.618Z,28.68
2023-09-06T15:17:08.970Z,28.67
2023-09-06T15:19:36.658Z,28.66
2023-09-06T15:22:04.962Z,28.58
2023-09-06T15:24:32.821Z,28.58
2023-09-06T15:27:00.207Z,28.49
2023-09-06T15:29:27.628Z,28.19
2023-09-06T15:31:55.357Z,28.18
2023-09-06T15:34:24.249Z,28.18
2023-09-06T15:36:52.531Z,27.99
2023-09-06T15:39:20.891Z,27.96
2023-09-06T15:41:48.029Z,27.88
2023-09-06T15:44:15.879Z,27.79
2023-09-06T15:46:43.569Z,27.75
2023-09-06T15:49:10.652Z,27.67
2023-09-06T15:51:39.080Z,27.54
2023-09-06T15:54:06.526Z,27.47
2023-09-06T15:56:33.845Z,27.44
2023-09-06T15:59:01.369Z,27.29
2023-09-06T16:01:32.076Z,27.15
2023-09-06T16:04:02.957Z,27.06
2023-09-06T16:06:33.506Z,27.00
2023-09-06T16:09:01.308Z,26.90
2023-09-06T16:11:29.083Z,26.78
2023-09-06T16:13:56.461Z,26.68
2023-09-06T16:16:24.862Z,26.62
2023-09-06T16:18:54.401Z,26.53
2023-09-06T16:21:21.929Z,26.42
2023-09-06T16:23:49.362Z,26.32
2023-09-06T16:26:17.210Z,26.22
2023-09-06T16:28:44.905Z,26.17
2023-09-06T16:31:12.562Z,26.03
2023-09-06T16:33:39.545Z,25.88
2023-09-06T16:36:08.706Z,25.77
2023-09-06T16:38:36.934Z,25.66
2023-09-06T16:41:06.833Z,25.52
2023-09-06T16:43:34.029Z,25.41
2023-09-06T16:46:01.855Z,25.31
2023-09-06T16:48:29.396Z,25.20
2023-09-06T16:50:56.888Z,25.08
2023-09-06T16:53:24.010Z,24.91
2023-09-06T16:55:51.559Z,24.76
2023-09-06T16:58:18.486Z,24.65
2023-09-06T17:00:45.410Z,24.49
2023-09-06T17:03:16.574Z,24.32
2023-09-06T17:05:49.355Z,24.17
2023-09-06T17:08:25.540Z,24.03
2023-09-06T17:10:54.001Z,23.88
2023-09-06T17:13:22.444Z,23.76
2023-09-06T17:15:50.398Z,23.60
2023-09-06T17:18:18.373Z,23.45
2023-09-06T17:20:46.336Z,23.36
2023-09-06T17:23:13.582Z,23.20
2023-09-06T17:25:42.311Z,23.07
2023-09-06T17:28:10.717Z,22.94
2023-09-06T17:30:39.203Z,22.83
2023-09-06T17:33:13.360Z,22.68
2023-09-06T17:35:45.695Z,22.56
2023-09-06T17:38:14.869Z,22.44
2023-09-06T17:40:47.529Z,22.31
2023-09-06T17:43:17.247Z,22.19
2023-09-06T17:45:46.872Z,22.07
2023-09-06T17:48:15.507Z,21.96
2023-09-06T17:50:46.325Z,21.85
2023-09-06T17:53:15.392Z,21.75
2023-09-06T17:55:43.188Z,21.67
2023-09-06T17:58:10.689Z,21.54
2023-09-06T18:00:43.847Z,21.45
2023-09-06T18:03:16.573Z,21.42
2023-09-06T18:05:56.809Z,21.34
2023-09-06T18:08:28.321Z,21.25
2023-09-06T18:10:56.540Z,21.15
2023-09-06T18:13:24.687Z,21.08
2023-09-06T18:15:54.230Z,20.94
2023-09-06T18:18:21.413Z,20.83
2023-09-06T18:20:49.140Z,20.73
2023-09-06T18:23:17.259Z,20.64
2023-09-06T18:25:46.523Z,20.55
2023-09-06T18:28:14.553Z,20.49
2023-09-06T18:30:48.717Z,20.44
2023-09-06T18:33:21.347Z,20.36
2023-09-06T18:35:49.726Z,20.28
2023-09-06T18:38:17.880Z,20.19
2023-09-06T18:40:47.116Z,20.15
2023-09-06T18:43:17.592Z,20.10
2023-09-06T18:45:45.807Z,20.09
2023-09-06T18:48:18.212Z,20.02
2023-09-06T18:50:52.805Z,19.98
2023-09-06T18:53:22.936Z,19.90
2023-09-06T18:55:52.372Z,19.84
2023-09-06T18:58:19.434Z,19.77
2023-09-06T19:00:48.147Z,19.70
2023-09-06T19:03:16.099Z,19.62
2023-09-06T19:05:45.085Z,19.56
2023-09-06T19:08:14.234Z,19.49
2023-09-06T19:10:42.369Z,19.35
2023-09-06T19:13:10.529Z,19.24
2023-09-06T19:15:37.652Z,19.18
2023-09-06T19:18:04.955Z,19.08
2023-09-06T19:20:32.008Z,18.92
2023-09-06T19:22:59.546Z,18.85
2023-09-06T19:25:27.041Z,18.77
2023-09-06T19:27:54.238Z,18.67
2023-09-06T19:30:21.948Z,18.57
2023-09-06T19:32:49.729Z,18.48
2023-09-06T19:35:17.304Z,18.41
2023-09-06T19:37:45.623Z,18.30
2023-09-06T19:40:14.113Z,18.26
2023-09-06T19:42:41.683Z,18.19
2023-09-06T19:45:11.362Z,18.14
2023-09-06T19:47:40.234Z,18.06
2023-09-06T19:50:08.309Z,18.04
2023-09-06T19:52:35.339Z,17.98
2023-09-06T19:55:04.294Z,17.93
2023-09-06T19:57:31.768Z,17.86
2023-09-06T19:59:58.924Z,17.85
2023-09-06T20:02:26.775Z,17.83
2023-09-06T20:04:54.868Z,17.80
2023-09-06T20:07:23.490Z,17.75
2023-09-06T20:09:51.905Z,17.70
2023-09-06T20:12:18.718Z,17.60
2023-09-06T20:14:46.027Z,17.50
2023-09-06T20:17:13.633Z,17.39
2023-09-06T20:19:41.125Z,17.24
2023-09-06T20:22:08.762Z,17.11
2023-09-06T20:24:37.581Z,17.00
2023-09-06T20:27:04.586Z,16.96
2023-09-06T20:29:34.030Z,16.91
2023-09-06T20:32:01.866Z,16.78
2023-09-06T20:34:28.867Z,16.72
2023-09-06T20:36:56.547Z,16.67
2023-09-06T20:39:24.575Z,16.58
2023-09-06T20:41:52.448Z,16.55
2023-09-06T20:44:19.945Z,16.51
2023-09-06T20:46:48.813Z,16.48
2023-09-06T20:49:17.604Z,16.43
2023-09-06T20:51:46.255Z,16.35
2023-09-06T20:54:14.442Z,16.30
2023-09-06T20:56:42.493Z,16.25
2023-09-06T20:59:09.897Z,16.21
2023-09-06T21:01:38.743Z,16.18
2023-09-06T21:04:06.092Z,16.11
2023-09-06T21:06:34.275Z,16.02
2023-09-06T21:09:02.162Z,15.95
2023-09-06T21:11:31.117Z,15.88
2023-09-06T21:13:59.410Z,15.79
2023-09-06T21:16:26.905Z,15.76
2023-09-06T21:18:54.649Z,15.72
2023-09-06T21:21:22.463Z,15.71
2023-09-06T21:23:50.053Z,15.68
2023-09-06T21:26:17.746Z,15.67
2023-09-06T21:28:44.883Z,15.67
2023-09-06T21:31:12.380Z,15.67
2023-09-06T21:33:39.681Z,15.62
2023-09-06T21:36:08.028Z,15.57
2023-09-06T21:38:37.061Z,15.53
2023-09-06T21:41:06.752Z,15.52
2023-09-06T21:43:35.831Z,15.49
2023-09-06T21:46:06.062Z,15.44
2023-09-06T21:48:33.833Z,15.41
2023-09-06T21:51:09.504Z,15.34
2023-09-06T21:53:38.157Z,15.28
2023-09-06T21:56:05.893Z,15.27
2023-09-06T21:58:35.570Z,15.17
2023-09-06T22:01:18.798Z,15.10
2023-09-06T22:04:05.369Z,15.05
2023-09-06T22:06:51.391Z,14.97
2023-09-06T22:09:37.416Z,14.95
2023-09-06T22:12:23.631Z,14.93
2023-09-06T22:14:51.713Z,14.92
2023-09-06T22:17:19.120Z,14.90
2023-09-06T22:19:47.414Z,14.89
2023-09-06T22:22:14.953Z,14.87
2023-09-06T22:24:43.678Z,14.86
2023-09-06T22:27:12.218Z,14.89
2023-09-06T22:29:40.210Z,14.90
2023-09-06T22:32:07.586Z,14.93
2023-09-06T22:34:37.517Z,14.96
2023-09-06T22:37:06.115Z,14.98
2023-09-06T22:39:36.258Z,14.99
2023-09-06T22:42:05.585Z,14.98
2023-09-06T22:44:33.861Z,14.97
2023-09-06T22:47:02.476Z,14.95
2023-09-06T22:49:31.081Z,14.93
2023-09-06T22:51:59.408Z,14.86
2023-09-06T22:54:26.628Z,14.84
2023-09-06T22:56:54.033Z,14.81
2023-09-06T22:59:22.492Z,14.73
2023-09-06T23:01:54.061Z,14.67
2023-09-06T23:04:21.618Z,14.58
2023-09-06T23:06:49.498Z,14.50
2023-09-06T23:09:20.805Z,14.47
2023-09-06T23:11:51.462Z,14.43
2023-09-06T23:14:19.624Z,14.43
2023-09-06T23:16:51.997Z,14.42
2023-09-06T23:19:29.085Z,14.41
2023-09-06T23:21:58.806Z,14.36
2023-09-06T23:24:26.379Z,14.35
2023-09-06T23:27:00.726Z,14.26
2023-09-06T23:29:36.751Z,14.20
2023-09-06T23:32:06.908Z,14.18
2023-09-06T23:34:36.786Z,14.16
2023-09-06T23:37:10.197Z,14.12
2023-09-06T23:39:42.394Z,14.11
2023-09-06T23:42:11.291Z,14.05
2023-09-06T23:44:42.701Z,14.03
2023-09-06T23:47:14.826Z,14.00
2023-09-06T23:49:45.015Z,13.98
2023-09-06T23:52:13.805Z,13.97
2023-09-06T23:54:47.734Z,13.92
2023-09-06T23:57:20.701Z,13.86
2023-09-06T23:59:49.512Z,13.81
